.
WxDataArchive / Data Records for 2010-07-31
2010-07-30 July 2010 2010-08-01

Data Records for Saturday, 31 July 2010

Time	Temp	Chill	HIndex	Humid	Dewpt	 Wind 	HiWind	WindDir	Rain 	Barom 
-----	----	-----	------	-----	-----	------	------	-------	-----	----- 
00:00	70.8	70.8	70.8	82	65.0	0	0	---	0.00	29.934 
00:05	70.6	70.6	70.6	82	64.8	0	0	---	0.00	29.934 
00:10	70.6	70.6	70.6	82	64.8	0	0	---	0.00	29.934 
00:15	70.6	70.6	70.6	82	64.8	0	0	---	0.00	29.930 
00:20	70.6	70.6	70.6	81	64.5	0	0	---	0.00	29.930 
00:25	70.6	70.6	70.6	81	64.5	0	0	---	0.00	29.930 
00:30	70.6	70.6	70.6	81	64.5	0	0	---	0.00	29.930 
00:35	70.6	70.6	70.6	81	64.5	0	0	---	0.00	29.930 
00:40	70.6	70.6	70.6	81	64.5	0	0	---	0.00	29.930 
00:45	70.6	70.6	70.6	81	64.5	0	0	---	0.00	29.931 
00:50	70.6	70.6	70.6	81	64.5	0	0	---	0.00	29.931 
00:55	70.6	70.6	70.6	81	64.5	0	0	---	0.00	29.931 
01:00	70.6	70.6	70.6	81	64.5	0	0	---	0.00	29.931 
01:05	70.6	70.6	70.6	81	64.5	0	0	---	0.00	29.931 
01:10	70.6	70.6	70.6	82	64.8	0	0	---	0.00	29.931 
01:15	70.6	70.6	70.6	82	64.8	0	0	---	0.00	29.931 
01:20	70.6	70.6	70.6	83	65.2	0	0	---	0.00	29.931 
01:25	70.6	70.6	70.6	83	65.2	0	0	---	0.00	29.931 
01:30	70.6	70.6	70.6	83	65.2	0	0	---	0.00	29.930 
01:35	70.6	70.6	70.6	84	65.5	0	0	---	0.00	29.930 
01:40	70.6	70.6	70.6	84	65.5	0	0	---	0.00	29.930 
01:45	70.4	70.4	70.4	84	65.3	0	0	---	0.00	29.930 
01:50	70.6	70.6	70.6	84	65.5	0	0	---	0.00	29.930 
01:55	70.6	70.6	70.6	83	65.2	0	0	---	0.00	29.930 
02:00	70.6	70.6	70.6	82	64.8	0	0	---	0.00	29.917 
02:05	70.6	70.6	70.6	82	64.8	0	0	---	0.00	29.917 
02:10	70.6	70.6	70.6	82	64.8	0	0	---	0.00	29.917 
02:15	70.6	70.6	70.6	82	64.8	0	0	---	0.00	29.919 
02:20	70.4	70.4	70.4	82	64.6	0	0	---	0.00	29.919 
02:25	70.4	70.4	70.4	83	65.0	0	0	---	0.00	29.919 
02:30	70.4	70.4	70.4	83	65.0	0	0	---	0.00	29.915 
02:35	70.3	70.3	70.3	83	64.9	0	0	---	0.00	29.915 
02:40	70.3	70.3	70.3	84	65.2	0	0	---	0.00	29.915 
02:45	70.3	70.3	70.3	84	65.2	0	0	---	0.00	29.910 
02:50	70.3	70.3	70.3	84	65.2	0	0	---	0.00	29.910 
02:55	70.3	70.3	70.3	84	65.2	0	0	---	0.00	29.910 
03:00	70.3	70.3	70.3	84	65.2	0	0	---	0.00	29.910 
03:05	70.3	70.3	70.3	84	65.2	0	0	---	0.00	29.910 
03:10	70.3	70.3	70.3	84	65.2	0	0	---	0.00	29.910 
03:15	70.3	70.3	70.3	84	65.2	0	0	---	0.00	29.902 
03:20	70.3	70.3	70.3	84	65.2	0	0	---	0.00	29.902 
03:25	70.3	70.3	70.3	84	65.2	0	0	---	0.00	29.902 
03:30	70.1	70.1	70.1	84	65.0	0	0	---	0.00	29.897 
03:35	70.1	70.1	70.1	84	65.0	0	0	---	0.00	29.897 
03:40	69.9	69.9	69.9	84	64.8	0	0	---	0.00	29.897 
03:45	69.9	69.9	69.9	84	64.8	0	0	---	0.00	29.897 
03:50	69.9	69.9	69.9	84	64.8	0	0	---	0.00	29.897 
03:55	69.8	69.8	69.8	84	64.7	0	0	---	0.00	29.897 
04:00	69.8	69.8	69.8	84	64.7	0	0	---	0.00	29.898 
04:05	69.8	69.8	69.8	84	64.7	0	0	---	0.00	29.898 
04:10	69.8	69.8	69.8	84	64.7	0	0	---	0.00	29.898 
04:15	69.8	69.8	69.8	84	64.7	0	0	---	0.00	29.886 
04:20	69.8	69.8	69.8	84	64.7	0	0	---	0.00	29.886 
04:25	69.8	69.8	69.8	84	64.7	0	0	---	0.00	29.886 
04:30	69.8	69.8	69.8	84	64.7	0	0	---	0.00	29.884 
04:35	69.6	69.6	69.6	84	64.5	0	0	---	0.00	29.884 
04:40	69.6	69.6	69.6	85	64.9	0	0	---	0.00	29.884 
04:45	69.4	69.4	69.4	85	64.7	0	0	---	0.00	29.883 
04:50	69.4	69.4	69.4	85	64.7	0	0	---	0.00	29.883 
04:55	69.3	69.3	69.3	85	64.6	0	0	---	0.00	29.883 
05:00	69.3	69.3	69.3	85	64.6	0	0	---	0.00	29.881 
05:05	69.1	69.1	69.1	85	64.4	0	0	---	0.00	29.881 
05:10	68.9	68.9	68.9	85	64.2	0	0	---	0.00	29.881 
05:15	68.9	68.9	68.9	85	64.2	0	0	---	0.00	29.883 
05:20	68.6	68.6	68.6	86	64.2	0	0	---	0.00	29.883 
05:25	68.6	68.6	68.6	86	64.2	0	0	---	0.00	29.883 
05:30	68.4	68.4	68.4	87	64.4	0	0	---	0.00	29.879 
05:35	68.3	68.3	68.3	87	64.3	0	0	---	0.00	29.879 
05:40	68.3	68.3	68.3	87	64.3	0	0	---	0.00	29.879 
05:45	68.3	68.3	68.3	87	64.3	0	0	---	0.00	29.874 
05:50	68.3	68.3	68.3	87	64.3	0	0	---	0.00	29.874 
05:55	68.3	68.3	68.3	87	64.3	0	0	---	0.00	29.874 
06:00	68.3	68.3	68.3	87	64.3	0	0	---	0.00	29.872 
06:05	68.1	68.1	68.1	87	64.1	0	0	---	0.00	29.872 
06:10	68.1	68.1	68.1	87	64.1	0	0	---	0.00	29.872 
06:15	67.9	67.9	67.9	87	63.9	0	0	---	0.00	29.874 
06:20	67.8	67.8	67.8	88	64.1	0	0	---	0.00	29.874 
06:25	67.6	67.6	67.6	88	63.9	0	0	---	0.00	29.874 
06:30	67.4	67.4	67.4	88	63.7	0	0	---	0.00	29.873 
06:35	67.4	67.4	67.4	88	63.7	0	0	---	0.00	29.873 
06:40	67.3	67.3	67.3	89	63.9	0	0	---	0.00	29.873 
06:45	67.3	67.3	67.3	89	63.9	0	0	---	0.00	29.870 
06:50	67.3	67.3	67.3	89	63.9	0	0	---	0.00	29.870 
06:55	67.4	67.4	67.4	90	64.4	0	0	---	0.00	29.870 
07:00	67.4	67.4	67.4	90	64.4	0	0	---	0.00	29.871 
07:05	67.6	67.6	67.6	90	64.6	0	0	---	0.00	29.871 
07:10	67.8	67.8	67.8	90	64.8	0	0	---	0.00	29.871 
07:15	67.8	67.8	67.8	90	64.8	0	0	---	0.00	29.875 
07:20	67.9	67.9	67.9	90	64.9	0	0	---	0.00	29.875 
07:25	68.1	68.1	68.1	90	65.0	0	0	---	0.00	29.875 
07:30	68.3	68.3	68.3	89	64.9	0	0	---	0.00	29.873 
07:35	68.6	68.6	68.6	89	65.2	0	0	---	0.00	29.873 
07:40	68.8	68.8	68.8	89	65.4	0	0	---	0.00	29.873 
07:45	68.8	68.8	68.8	88	65.1	0	0	---	0.00	29.872 
07:50	68.9	68.9	68.9	88	65.2	0	0	---	0.00	29.872 
07:55	69.1	69.1	69.1	88	65.4	0	0	---	0.00	29.872 
08:00	69.1	69.1	69.1	88	65.4	0	0	---	0.00	29.875 
08:05	69.1	69.1	69.1	88	65.4	0	0	---	0.00	29.875 
08:10	69.3	69.3	69.3	87	65.3	0	0	---	0.00	29.875 
08:15	69.3	69.3	69.3	87	65.3	0	0	---	0.00	29.882 
08:20	69.4	69.4	69.4	87	65.4	0	0	---	0.00	29.882 
08:25	69.4	69.4	69.4	86	65.0	0	0	---	0.00	29.882 
08:30	69.4	69.4	69.4	87	65.4	0	0	---	0.00	29.889 
08:35	69.6	69.6	69.6	86	65.2	0	0	---	0.00	29.889 
08:40	69.6	69.6	69.6	86	65.2	0	0	---	0.00	29.889 
08:45	69.6	69.6	69.6	86	65.2	0	0	---	0.00	29.900 
08:50	69.8	69.8	69.8	86	65.4	0	0	---	0.00	29.900 
08:55	69.8	69.8	69.8	86	65.4	0	0	---	0.00	29.900 
09:00	69.8	69.8	69.8	86	65.4	0	0	---	0.00	29.896 
09:05	69.8	69.8	69.8	87	65.7	0	0	---	0.00	29.896 
09:10	69.8	69.8	69.8	87	65.7	0	0	---	0.00	29.896 
09:15	69.8	69.8	69.8	88	66.1	0	0	---	0.00	29.897 
09:20	69.6	69.6	69.6	88	65.9	0	0	---	0.00	29.897 
09:25	69.6	69.6	69.6	89	66.2	0	0	---	0.01	29.897 
09:30	69.6	69.6	69.6	89	66.2	0	0	---	0.00	29.904 
09:35	69.4	69.4	69.4	90	66.3	0	0	---	0.01	29.904 
09:40	69.4	69.4	69.4	90	66.3	0	0	---	0.00	29.904 
09:45	69.3	69.3	69.3	91	66.6	0	0	---	0.01	29.891 
09:50	69.3	69.3	69.3	91	66.6	0	0	---	0.00	29.891 
09:55	69.1	69.1	69.1	91	66.4	0	0	---	0.01	29.891 
10:00	69.1	69.1	69.1	92	66.7	0	0	---	0.01	29.905 
10:05	68.9	68.9	68.9	92	66.5	0	0	---	0.01	29.905 
10:10	68.8	68.8	68.8	92	66.4	0	0	---	0.02	29.905 
10:15	68.4	68.4	68.4	92	66.0	0	1	338	0.01	29.900 
10:20	67.9	67.9	67.9	92	65.5	0	2	270	0.01	29.900 
10:25	67.6	67.6	67.6	92	65.2	1	3	270	0.01	29.900 
10:30	67.3	67.3	67.3	92	64.9	0	2	270	0.00	29.904 
10:35	66.9	66.9	66.9	92	64.5	1	3	248	0.00	29.904 
10:40	66.9	66.9	66.9	92	64.5	1	3	248	0.01	29.904 
10:45	66.6	66.6	66.6	92	64.2	3	10	90	0.00	29.852 
10:50	66.4	66.4	66.4	92	64.0	3	7	90	0.01	29.852 
10:55	66.3	66.3	66.3	92	63.9	3	10	90	0.00	29.852 
11:00	66.1	66.1	66.1	91	63.4	3	6	90	0.01	29.810 
11:05	65.8	65.8	65.8	91	63.1	2	10	90	0.00	29.810 
11:10	65.6	65.6	65.6	91	62.9	1	4	338	0.00	29.810 
11:15	65.6	65.6	65.6	91	62.9	0	4	68	0.00	29.835 
11:20	65.6	65.6	65.6	91	62.9	1	3	270	0.01	29.835 
11:25	65.6	65.6	65.6	91	62.9	0	1	270	0.00	29.835 
11:30	65.6	65.6	65.6	91	62.9	0	1	270	0.00	29.858 
11:35	65.8	65.8	65.8	92	63.4	0	1	270	0.00	29.858 
11:40	66.0	66.0	66.0	92	63.6	0	1	270	0.00	29.858 
11:45	66.0	66.0	66.0	91	63.3	0	1	270	0.00	29.878 
11:50	66.4	66.4	66.4	91	63.7	0	2	270	0.00	29.878 
11:55	66.9	66.9	66.9	90	63.9	0	2	315	0.00	29.878 
12:00	67.4	67.4	67.4	90	64.4	0	2	315	0.00	29.890 
12:05	67.8	67.8	67.8	88	64.1	0	2	315	0.00	29.890 
12:10	67.8	67.8	67.8	86	63.5	0	1	315	0.00	29.890 
12:15	68.1	68.1	68.1	85	63.4	0	1	315	0.00	29.881 
12:20	68.6	68.6	68.6	85	63.9	0	1	315	0.00	29.881 
12:25	69.3	69.3	69.3	86	64.9	0	1	315	0.00	29.881 
12:30	69.8	69.8	69.8	83	64.4	0	1	315	0.00	29.881 
12:35	70.1	70.1	70.1	82	64.3	0	1	315	0.00	29.881 
12:40	70.1	70.1	70.1	80	63.6	0	3	315	0.00	29.881 
12:45	69.9	69.9	69.9	76	62.0	1	3	315	0.00	29.877 
12:50	69.9	69.9	69.9	77	62.3	0	1	292	0.00	29.877 
12:55	70.1	70.1	70.1	77	62.5	1	2	292	0.00	29.877 
13:00	70.4	70.4	70.4	75	62.1	0	1	292	0.00	29.875 
13:05	71.1	71.1	71.1	76	63.1	0	1	292	0.00	29.875 
13:10	72.0	72.0	72.0	73	62.9	1	4	45	0.00	29.875 
13:15	72.8	72.8	72.8	69	62.0	1	6	112	0.00	29.871 
13:20	73.0	73.0	73.0	70	62.6	1	4	112	0.00	29.871 
13:25	73.3	73.3	73.3	69	62.5	1	4	135	0.00	29.871 
13:30	73.3	73.3	73.3	69	62.5	2	5	90	0.00	29.867 
13:35	73.3	73.3	73.3	69	62.5	2	6	90	0.00	29.867 
13:40	73.7	73.7	73.7	68	62.5	0	1	90	0.00	29.867 
13:45	73.9	73.9	73.9	68	62.7	1	3	90	0.00	29.867 
13:50	73.9	73.9	73.9	68	62.7	1	5	90	0.00	29.867 
13:55	73.7	73.7	73.7	67	62.0	2	4	90	0.00	29.867 
14:00	73.7	73.7	73.7	67	62.0	1	4	90	0.00	29.865 
14:05	73.7	73.7	73.7	69	62.9	1	7	90	0.00	29.865 
14:10	73.9	73.9	73.9	68	62.7	0	2	270	0.00	29.865 
14:15	74.0	74.0	74.0	66	61.9	1	4	90	0.00	29.867 
14:20	74.0	74.0	74.0	66	61.9	1	3	90	0.00	29.867 
14:25	74.2	74.2	74.2	67	62.5	0	2	135	0.00	29.867 
14:30	74.2	74.2	74.2	66	62.1	2	5	68	0.00	29.870 
14:35	73.9	73.9	73.9	66	61.8	1	4	68	0.00	29.870 
14:40	74.0	74.0	74.0	66	61.9	1	5	90	0.00	29.870 
14:45	74.2	74.2	74.2	65	61.7	1	3	90	0.00	29.861 
14:50	74.2	74.2	74.2	66	62.1	1	3	90	0.00	29.861 
14:55	74.4	74.4	74.4	65	61.8	1	2	90	0.00	29.861 
15:00	74.7	74.7	74.7	65	62.1	1	4	90	0.00	29.860 
15:05	74.7	74.7	74.7	65	62.1	1	3	90	0.00	29.860 
15:10	74.6	74.6	74.6	65	62.0	1	5	90	0.00	29.860 
15:15	74.4	74.4	74.4	66	62.3	1	2	90	0.00	29.860 
15:20	74.0	74.0	74.0	65	61.5	1	4	90	0.00	29.860 
15:25	74.0	74.0	74.0	66	61.9	0	2	68	0.00	29.860 
15:30	73.9	73.9	73.9	65	61.4	1	3	68	0.00	29.862 
15:35	73.9	73.9	73.9	65	61.4	1	3	68	0.00	29.862 
15:40	73.9	73.9	73.9	65	61.4	0	2	68	0.00	29.862 
15:45	74.0	74.0	74.0	65	61.5	1	3	68	0.00	29.861 
15:50	74.2	74.2	74.2	66	62.1	0	1	68	0.00	29.861 
15:55	74.4	74.4	74.4	64	61.4	0	1	68	0.00	29.861 
16:00	74.4	74.4	74.4	65	61.8	0	2	68	0.00	29.862 
16:05	74.2	74.2	74.2	65	61.7	2	4	68	0.00	29.862 
16:10	74.2	74.2	74.2	65	61.7	1	3	68	0.00	29.862 
16:15	74.4	74.4	74.4	67	62.7	0	2	68	0.00	29.864 
16:20	74.6	74.6	74.6	64	61.6	1	3	68	0.00	29.864 
16:25	74.7	74.7	74.7	65	62.1	1	3	68	0.00	29.864 
16:30	74.7	74.7	74.7	62	60.8	1	3	68	0.00	29.859 
16:35	75.1	75.1	77.2	64	62.1	0	1	68	0.00	29.859 
16:40	75.4	75.4	77.5	62	61.5	1	4	135	0.00	29.859 
16:45	76.0	76.0	78.0	62	62.0	1	3	135	0.00	29.854 
16:50	76.3	76.3	78.2	62	62.3	2	6	90	0.00	29.854 
16:55	76.5	76.5	78.4	61	62.0	1	4	90	0.00	29.854 
17:00	76.7	76.7	78.5	59	61.3	0	3	90	0.00	29.849 
17:05	77.0	77.0	78.8	60	62.0	1	5	90	0.00	29.849 
17:10	76.8	76.8	78.6	60	61.8	1	3	90	0.00	29.849 
17:15	76.5	76.5	78.4	61	62.0	0	2	90	0.00	29.855 
17:20	76.3	76.3	78.2	60	61.4	1	4	90	0.00	29.855 
17:25	76.0	76.0	77.9	63	62.5	1	5	90	0.00	29.855 
17:30	75.6	75.6	77.7	62	61.6	1	3	90	0.00	29.851 
17:35	75.6	75.6	77.7	62	61.6	1	4	112	0.00	29.851 
17:40	75.4	75.4	77.6	61	61.0	1	2	112	0.00	29.851 
17:45	75.4	75.4	77.5	62	61.5	0	2	112	0.00	29.851 
17:50	75.4	75.4	77.5	62	61.5	0	1	112	0.00	29.851 
17:55	75.8	75.8	77.7	64	62.7	0	1	112	0.00	29.851 
18:00	76.0	76.0	78.0	62	62.0	0	3	112	0.00	29.855 
18:05	76.0	76.0	78.0	60	61.1	2	5	90	0.00	29.855 
18:10	76.0	76.0	78.0	60	61.1	2	3	90	0.00	29.855 
18:15	75.8	75.8	77.8	61	61.4	0	2	90	0.00	29.852 
18:20	75.6	75.6	77.7	62	61.6	0	0	---	0.00	29.852 
18:25	75.4	75.4	77.5	62	61.5	0	1	90	0.00	29.852 
18:30	75.4	75.4	77.5	62	61.5	0	2	90	0.00	29.851 
18:35	75.4	75.4	77.5	62	61.5	0	1	90	0.00	29.851 
18:40	75.4	75.4	77.6	61	61.0	0	3	90	0.00	29.851 
18:45	75.4	75.4	77.5	62	61.5	0	4	68	0.00	29.850 
18:50	75.6	75.6	77.6	63	62.1	1	4	90	0.00	29.850 
18:55	75.6	75.6	77.7	61	61.2	0	3	90	0.00	29.850 
19:00	75.6	75.6	77.7	62	61.6	0	2	90	0.00	29.850 
19:05	75.6	75.6	77.7	62	61.6	0	1	90	0.00	29.850 
19:10	75.4	75.4	77.6	61	61.0	0	3	292	0.00	29.850 
19:15	75.3	75.3	77.5	60	60.4	0	1	112	0.00	29.850 
19:20	75.1	75.1	77.4	61	60.7	0	1	112	0.00	29.850 
19:25	74.9	74.9	74.9	62	61.0	0	1	112	0.00	29.850 
19:30	74.7	74.7	74.7	62	60.8	0	2	112	0.00	29.847 
19:35	74.7	74.7	74.7	62	60.8	0	1	112	0.00	29.847 
19:40	74.7	74.7	74.7	62	60.8	0	1	112	0.00	29.847 
19:45	74.9	74.9	74.9	62	61.0	0	1	112	0.00	29.843 
19:50	74.9	74.9	74.9	62	61.0	0	1	112	0.00	29.843 
19:55	74.9	74.9	74.9	61	60.5	0	1	112	0.00	29.843 
20:00	74.9	74.9	74.9	61	60.5	0	0	---	0.00	29.854 
20:05	74.9	74.9	74.9	64	61.9	0	0	---	0.00	29.854 
20:10	74.6	74.6	74.6	65	62.0	0	0	---	0.00	29.854 
20:15	74.2	74.2	74.2	66	62.1	0	0	---	0.00	29.854 
20:20	73.9	73.9	73.9	67	62.2	0	0	---	0.00	29.854 
20:25	73.7	73.7	73.7	67	62.0	0	0	---	0.00	29.854 
20:30	73.3	73.3	73.3	68	62.1	0	0	---	0.00	29.857 
20:35	73.0	73.0	73.0	68	61.8	0	0	---	0.00	29.857 
20:40	72.7	72.7	72.7	69	61.9	0	0	---	0.00	29.857 
20:45	72.3	72.3	72.3	69	61.5	0	0	---	0.00	29.858 
20:50	72.1	72.1	72.1	70	61.8	0	0	---	0.00	29.858 
20:55	71.8	71.8	71.8	70	61.5	0	0	---	0.00	29.858 
21:00	71.6	71.6	71.6	72	62.1	0	0	---	0.00	29.862 
21:05	71.5	71.5	71.5	72	62.0	0	0	---	0.00	29.862 
21:10	71.1	71.1	71.1	73	62.0	0	0	---	0.00	29.862 
21:15	70.8	70.8	70.8	73	61.7	0	0	---	0.00	29.862 
21:20	70.6	70.6	70.6	73	61.5	0	0	---	0.00	29.862 
21:25	70.3	70.3	70.3	75	62.0	0	0	---	0.00	29.862 
21:30	70.1	70.1	70.1	76	62.2	0	0	---	0.00	29.869 
21:35	69.9	69.9	69.9	77	62.3	0	0	---	0.00	29.869 
21:40	69.6	69.6	69.6	77	62.1	0	0	---	0.00	29.869 
21:45	69.3	69.3	69.3	77	61.8	0	0	---	0.00	29.871 
21:50	68.9	68.9	68.9	78	61.7	0	0	---	0.00	29.871 
21:55	68.8	68.8	68.8	80	62.4	0	0	---	0.00	29.871 
22:00	68.6	68.6	68.6	81	62.5	0	0	---	0.00	29.877 
22:05	68.3	68.3	68.3	81	62.2	0	0	---	0.00	29.877 
22:10	68.1	68.1	68.1	82	62.4	0	0	---	0.00	29.877 
22:15	67.9	67.9	67.9	82	62.2	0	0	---	0.00	29.880 
22:20	67.8	67.8	67.8	83	62.4	0	0	---	0.00	29.880 
22:25	67.4	67.4	67.4	84	62.4	0	0	---	0.00	29.880 
22:30	67.3	67.3	67.3	84	62.3	0	0	---	0.00	29.880 
22:35	67.1	67.1	67.1	84	62.1	0	0	---	0.00	29.880 
22:40	66.9	66.9	66.9	85	62.2	0	0	---	0.00	29.880 
22:45	66.8	66.8	66.8	85	62.1	0	0	---	0.00	29.880 
22:50	66.8	66.8	66.8	86	62.5	0	0	---	0.00	29.880 
22:55	66.6	66.6	66.6	86	62.3	0	0	---	0.00	29.880 
23:00	66.4	66.4	66.4	86	62.1	0	0	---	0.00	29.882 
23:05	66.4	66.4	66.4	87	62.4	0	0	---	0.00	29.882 
23:10	66.3	66.3	66.3	87	62.3	0	0	---	0.00	29.882 
23:15	66.1	66.1	66.1	88	62.4	0	0	---	0.00	29.886 
23:20	66.0	66.0	66.0	88	62.3	0	0	---	0.00	29.886 
23:25	66.0	66.0	66.0	88	62.3	0	0	---	0.00	29.886 
23:30	65.8	65.8	65.8	88	62.1	0	0	---	0.00	29.883 
23:35	65.6	65.6	65.6	88	61.9	0	0	---	0.00	29.883 
23:40	65.5	65.5	65.5	89	62.2	0	0	---	0.00	29.883 
23:45	65.3	65.3	65.3	89	62.0	0	0	---	0.00	29.882 
23:50	65.2	65.2	65.2	90	62.2	0	0	---	0.00	29.882 
23:55	65.2	65.2	65.2	90	62.2	0	0	---	0.00	29.882 

CoCoRaHS
IN-AL-39
A2 Web Hosting
Creative Commons License
GoDaddy
search engine by freefind advanced

loaded 2018-11-15 04:06:21 • last modified 2010-11-18 10:43:29
Privacy PolicyDisclaimer
• wx.awcolley.com is powered by PmWiki v.2002016 •
• all content (unless otherwise noted) © 2018 A W Colley